Airfield :
LOGIN :

Register | Disclaimer

   EN    FR    IT 

 










Legend :    VFR   Marginal VFR   IFR   Intensive IFR   Very Intensive IFR
Visi :
Ceiling :
>= 8 km
>= 3000ft
5 to 8 km
1000 to 3000 ft
1500m to 5 km
500 to 1000 ft
800 to 1500m
200 to 500 ft
< 800m
< 200 ft
Symbols :   Thunderstorms  Fog  Heavy snow  Heavy precipitations  Wind > 20 kt
SIGMETs :     Misc.  Thunderstorms  Icing  Turbulence  Mountain Waves  Volcanic Ashes






- Airport Elevation : 31 ft
- IATA code : INV


EGPE - Inverness

CURRENT METAR :
  • 192350Z AUTO 20018KT 9999 SCT030/// 08/05 Q1037

EXPIRED METARs :
  • 192320Z AUTO 21020KT 9999 FEW033/// 08/05 Q1037
  • 192250Z AUTO 21017KT 9999 FEW033/// 08/05 Q1037
  • 192220Z 21016KT 9999 FEW031 08/05 Q1037
  • 192150Z 22020G31KT CAVOK 08/04 Q1037
  • 192120Z 22027KT CAVOK 08/04 Q1035

TAF TAF EGPE
Valid from the 20 at 00:00 until the 20 at 09:00 UTC


192257Z 2000/2009 22019KT 9999 SCT025
TEMPO 2000/2006 23022G34KT
PROB30
TEMPO 2003/2009 BKN014
BECMG 2006/2009 22015G28KT
ATIS : +44 1667 464 255



MET'MAP, your aeronautical weather chart ! - Copyright ORBIFLY December 2007 - Disclaimer

ORBIFLY MET'MAP TEAM :

Programming & Development : Alexandra Zaïnal
Concept & original design : Baudouin d'Aumeries
Assistance for programming : Marc-Olivier Méhu
Technical & hardware support : Manuel Goepfert

Contact : metmap@orbifly.com




SOURCES & CREDITS :

   NOAA